createdAt,value
2018-02-26T00:00:21.032Z,103216
2018-02-26T00:02:49.407Z,103219
2018-02-26T00:05:18.411Z,103214
2018-02-26T00:07:47.374Z,103212
2018-02-26T00:10:16.328Z,103209
2018-02-26T00:12:45.288Z,103213
2018-02-26T00:15:14.215Z,103215
2018-02-26T00:17:42.401Z,103211
2018-02-26T00:20:10.561Z,103220
2018-02-26T00:22:41.693Z,103208
2018-02-26T00:25:09.907Z,103213
2018-02-26T00:27:38.097Z,103216
2018-02-26T00:30:07.016Z,103214
2018-02-26T00:32:35.213Z,103224
2018-02-26T00:35:03.375Z,103224
2018-02-26T00:37:31.577Z,103222
2018-02-26T00:39:59.879Z,103219
2018-02-26T00:42:28.111Z,103217
2018-02-26T00:44:56.344Z,103215
2018-02-26T00:47:25.335Z,103217
2018-02-26T00:49:54.234Z,103209
2018-02-26T00:52:22.424Z,103203
2018-02-26T00:54:50.615Z,103207
2018-02-26T00:57:18.842Z,103206
2018-02-26T00:59:47.852Z,103203
2018-02-26T01:02:16.052Z,103202
2018-02-26T01:04:44.333Z,103209
2018-02-26T01:07:13.234Z,103212
2018-02-26T01:09:41.407Z,103212
2018-02-26T01:12:09.627Z,103213
2018-02-26T01:14:38.572Z,103216
2018-02-26T01:17:06.727Z,103214
2018-02-26T01:19:34.870Z,103214
2018-02-26T01:22:03.151Z,103219
2018-02-26T01:24:31.314Z,103217
2018-02-26T01:27:00.250Z,103215
2018-02-26T01:29:28.417Z,103210
2018-02-26T01:31:56.600Z,103218
2018-02-26T01:34:24.751Z,103209
2018-02-26T01:36:52.964Z,103211
2018-02-26T01:39:21.898Z,103221
2018-02-26T01:41:50.123Z,103218
2018-02-26T01:44:18.316Z,103220
2018-02-26T01:46:47.306Z,103215
2018-02-26T01:49:15.498Z,103214
2018-02-26T01:51:43.676Z,103213
2018-02-26T01:54:11.846Z,103217
2018-02-26T01:56:40.001Z,103212
2018-02-26T01:59:08.987Z,103208
2018-02-26T02:01:37.165Z,103210
2018-02-26T02:04:05.327Z,103221
2018-02-26T02:06:33.511Z,103220
2018-02-26T02:09:01.799Z,103218
2018-02-26T02:11:30.724Z,103221
2018-02-26T02:13:59.132Z,103227
2018-02-26T02:16:27.383Z,103218
2018-02-26T02:18:55.583Z,103222
2018-02-26T02:21:23.783Z,103214
2018-02-26T02:23:54.214Z,103215
2018-02-26T02:26:23.190Z,103210
2018-02-26T02:28:51.363Z,103203
2018-02-26T02:31:19.571Z,103211
2018-02-26T02:33:47.772Z,103211
2018-02-26T02:36:15.940Z,103211
2018-02-26T02:38:44.313Z,103203
2018-02-26T02:41:12.574Z,103212
2018-02-26T02:43:40.743Z,103205
2018-02-26T02:46:08.915Z,103208
2018-02-26T02:48:38.068Z,103212
2018-02-26T02:51:06.216Z,103207
2018-02-26T02:53:34.367Z,103212
2018-02-26T02:56:02.581Z,103214
2018-02-26T02:58:30.739Z,103209
2018-02-26T03:00:59.012Z,103213
2018-02-26T03:03:27.159Z,103212
2018-02-26T03:05:55.401Z,103207
2018-02-26T03:08:24.342Z,103212
2018-02-26T03:10:52.535Z,103210
2018-02-26T03:13:20.681Z,103220
2018-02-26T03:15:48.915Z,103214
2018-02-26T03:18:17.908Z,103223
2018-02-26T03:20:46.086Z,103221
2018-02-26T03:23:14.251Z,103211
2018-02-26T03:25:43.164Z,103219
2018-02-26T03:28:11.373Z,103219
2018-02-26T03:30:39.530Z,103213
2018-02-26T03:33:07.726Z,103211
2018-02-26T03:35:35.869Z,103209
2018-02-26T03:38:04.793Z,103205
2018-02-26T03:40:32.963Z,103203
2018-02-26T03:43:01.150Z,103206
2018-02-26T03:45:29.438Z,103214
2018-02-26T03:47:58.408Z,103208
2018-02-26T03:50:26.595Z,103205
2018-02-26T03:52:54.761Z,103203
2018-02-26T03:55:22.938Z,103210
2018-02-26T03:57:51.143Z,103207
2018-02-26T04:00:20.062Z,103204
2018-02-26T04:02:48.235Z,103217
2018-02-26T04:05:16.398Z,103213
2018-02-26T04:07:44.632Z,103205
2018-02-26T04:10:13.563Z,103201
2018-02-26T04:12:41.755Z,103202
2018-02-26T04:15:09.974Z,103200
2018-02-26T04:17:38.145Z,103200
2018-02-26T04:20:06.376Z,103199
2018-02-26T04:22:34.604Z,103204
2018-02-26T04:25:02.789Z,103206
2018-02-26T04:27:30.974Z,103197
2018-02-26T04:29:59.134Z,103194
2018-02-26T04:32:27.335Z,103200
2018-02-26T04:34:55.584Z,103192
2018-02-26T04:37:23.735Z,103196
2018-02-26T04:39:51.911Z,103190
2018-02-26T04:42:20.925Z,103188
2018-02-26T04:44:49.103Z,103190
2018-02-26T04:47:17.261Z,103195
2018-02-26T04:49:46.232Z,103186
2018-02-26T04:52:14.434Z,103188
2018-02-26T04:54:42.616Z,103189
2018-02-26T04:57:10.815Z,103185
2018-02-26T04:59:38.981Z,103184
2018-02-26T05:02:07.161Z,103189
2018-02-26T05:04:35.386Z,103184
2018-02-26T05:07:04.360Z,103191
2018-02-26T05:09:32.503Z,103190
2018-02-26T05:12:00.694Z,103192
2018-02-26T05:14:28.861Z,103182
2018-02-26T05:16:57.044Z,103191
2018-02-26T05:19:25.222Z,103179
2018-02-26T05:21:53.400Z,103178
2018-02-26T05:24:21.547Z,103173
2018-02-26T05:26:49.726Z,103170
2018-02-26T05:29:17.894Z,103176
2018-02-26T05:31:46.111Z,103180
2018-02-26T05:34:14.416Z,103172
2018-02-26T05:36:42.568Z,103182
2018-02-26T05:39:10.790Z,103174
2018-02-26T05:41:39.114Z,103174
2018-02-26T05:44:08.131Z,103175
2018-02-26T05:46:36.366Z,103170
2018-02-26T05:49:05.330Z,103173
2018-02-26T05:51:33.491Z,103185
2018-02-26T05:54:01.664Z,103192
2018-02-26T05:56:29.852Z,103191
2018-02-26T05:58:58.095Z,103189
2018-02-26T06:01:26.475Z,103195
2018-02-26T06:03:54.657Z,103190
2018-02-26T06:06:22.859Z,103206
2018-02-26T06:08:51.079Z,103205
2018-02-26T06:11:19.269Z,103206
2018-02-26T06:13:47.451Z,103201
2018-02-26T06:16:15.807Z,103210
2018-02-26T06:18:43.969Z,103202
2018-02-26T06:21:12.205Z,103190
2018-02-26T06:23:40.503Z,103192
2018-02-26T06:26:09.645Z,103192
2018-02-26T06:28:37.828Z,103188
2018-02-26T06:31:06.049Z,103188
2018-02-26T06:33:35.128Z,103189
2018-02-26T06:36:03.464Z,103193
2018-02-26T06:38:31.750Z,103194
2018-02-26T06:40:59.992Z,103182
2018-02-26T06:43:28.222Z,103186
2018-02-26T06:45:57.305Z,103188
2018-02-26T06:48:25.608Z,103182
2018-02-26T06:50:53.987Z,103182
2018-02-26T06:53:22.993Z,103175
2018-02-26T06:55:51.956Z,103171
2018-02-26T06:58:21.112Z,103179
2018-02-26T07:00:49.374Z,103172
2018-02-26T07:03:17.598Z,103171
2018-02-26T07:05:46.539Z,103171
2018-02-26T07:08:14.694Z,103181
2018-02-26T07:10:42.860Z,103193
2018-02-26T07:13:11.032Z,103186
2018-02-26T07:15:40.113Z,103184
2018-02-26T07:18:08.283Z,103186
2018-02-26T07:20:37.341Z,103183
2018-02-26T07:23:05.572Z,103182
2018-02-26T07:25:33.802Z,103195
2018-02-26T07:28:01.979Z,103192
2018-02-26T07:30:30.177Z,103199
2018-02-26T07:32:58.372Z,103194
2018-02-26T07:35:27.415Z,103204
2018-02-26T07:37:55.606Z,103208
2018-02-26T07:40:24.582Z,103213
2018-02-26T07:42:52.792Z,103207
2018-02-26T07:45:20.974Z,103204
2018-02-26T07:47:49.651Z,103212
2018-02-26T07:50:17.899Z,103209
2018-02-26T07:52:46.042Z,103204
2018-02-26T07:55:14.279Z,103210
2018-02-26T07:57:42.457Z,103209
2018-02-26T08:00:10.618Z,103203
2018-02-26T08:02:38.842Z,103209
2018-02-26T08:05:07.045Z,103207
2018-02-26T08:07:35.218Z,103213
2018-02-26T08:10:04.146Z,103233
2018-02-26T08:12:32.308Z,103217
2018-02-26T08:15:00.462Z,103219
2018-02-26T08:17:29.476Z,103210
2018-02-26T08:19:57.622Z,103214
2018-02-26T08:22:26.631Z,103202
2018-02-26T08:24:54.787Z,103212
2018-02-26T08:27:22.990Z,103205
2018-02-26T08:29:51.181Z,103201
2018-02-26T08:32:19.458Z,103200
2018-02-26T08:34:47.698Z,103197
2018-02-26T08:37:16.694Z,103206
2018-02-26T08:39:45.671Z,103199
2018-02-26T08:42:14.624Z,103200
2018-02-26T08:44:42.882Z,103186
2018-02-26T08:47:11.059Z,103184
2018-02-26T08:49:39.202Z,103187
2018-02-26T08:52:07.498Z,103181
2018-02-26T08:54:35.789Z,103181
2018-02-26T08:57:03.956Z,103174
2018-02-26T08:59:32.212Z,103173
2018-02-26T09:02:00.471Z,103167
2018-02-26T09:04:28.661Z,103170
2018-02-26T09:06:56.843Z,103172
2018-02-26T09:09:25.169Z,103167
2018-02-26T09:11:54.308Z,103170
2018-02-26T09:14:22.478Z,103170
2018-02-26T09:16:50.796Z,103170
2018-02-26T09:19:18.981Z,103165
2018-02-26T09:21:47.206Z,103159
2018-02-26T09:24:15.564Z,103153
2018-02-26T09:26:43.782Z,103164
2018-02-26T09:29:12.010Z,103156
2018-02-26T09:31:41.010Z,103151
2018-02-26T09:34:09.324Z,103156
2018-02-26T09:36:37.693Z,103148
2018-02-26T09:39:05.989Z,103146
2018-02-26T09:41:34.182Z,103137
2018-02-26T09:44:03.344Z,103140
2018-02-26T09:46:31.562Z,103137
2018-02-26T09:49:00.490Z,103127
2018-02-26T09:51:28.862Z,103132
2018-02-26T09:53:57.020Z,103129
2018-02-26T09:56:25.226Z,103128
2018-02-26T09:58:53.458Z,103124
2018-02-26T10:01:22.428Z,103126
2018-02-26T10:03:50.701Z,103123
2018-02-26T10:06:18.876Z,103122
2018-02-26T10:08:47.052Z,103115
2018-02-26T10:11:16.070Z,103115
2018-02-26T10:13:44.320Z,103119
2018-02-26T10:16:12.551Z,103112
2018-02-26T10:18:40.728Z,103115
2018-02-26T10:21:08.894Z,103110
2018-02-26T10:23:37.082Z,103121
2018-02-26T10:26:05.354Z,103111
2018-02-26T10:28:33.597Z,103106
2018-02-26T10:31:01.873Z,103122
2018-02-26T10:33:30.392Z,103096
2018-02-26T10:35:58.599Z,103106
2018-02-26T10:38:27.674Z,103107
2018-02-26T10:40:56.040Z,103096
2018-02-26T10:43:24.247Z,103099
2018-02-26T10:45:52.471Z,103103
2018-02-26T10:48:20.736Z,103092
2018-02-26T10:50:48.988Z,103104
2018-02-26T10:53:17.200Z,103093
2018-02-26T10:55:45.384Z,103089
2018-02-26T10:58:14.291Z,103085
2018-02-26T11:00:42.492Z,103087
2018-02-26T11:03:11.481Z,103076
2018-02-26T11:05:40.434Z,103073
2018-02-26T11:08:08.649Z,103081
2018-02-26T11:10:37.566Z,103077
2018-02-26T11:13:05.862Z,103071
2018-02-26T11:15:34.051Z,103066
2018-02-26T11:18:02.254Z,103075
2018-02-26T11:20:31.179Z,103060
2018-02-26T11:22:59.347Z,103055
2018-02-26T11:25:27.549Z,103042
2018-02-26T11:27:55.731Z,103049
2018-02-26T11:30:23.946Z,103041
2018-02-26T11:32:52.176Z,103046
2018-02-26T11:35:20.375Z,103047
2018-02-26T11:37:48.650Z,103039
2018-02-26T11:40:16.799Z,103033
2018-02-26T11:42:46.309Z,103030
2018-02-26T11:45:14.525Z,103020
2018-02-26T11:47:42.722Z,103026
2018-02-26T11:50:11.075Z,103019
2018-02-26T11:52:40.050Z,103024
2018-02-26T11:55:09.011Z,103022
2018-02-26T11:57:38.853Z,103013
2018-02-26T12:00:07.726Z,103010
2018-02-26T12:02:36.003Z,103024
2018-02-26T12:05:04.226Z,103015
2018-02-26T12:07:32.500Z,103015
2018-02-26T12:10:00.671Z,103015
2018-02-26T12:12:28.981Z,103018
2018-02-26T12:14:57.219Z,103011
2018-02-26T12:17:25.503Z,102993
2018-02-26T12:19:54.329Z,103014
2018-02-26T12:22:22.535Z,102985
2018-02-26T12:24:51.517Z,102999
2018-02-26T12:27:20.513Z,102991
2018-02-26T12:29:48.777Z,102991
2018-02-26T12:32:17.040Z,102990
2018-02-26T12:34:45.224Z,102982
2018-02-26T12:37:13.400Z,102980
2018-02-26T12:39:41.587Z,102977
2018-02-26T12:42:10.602Z,102972
2018-02-26T12:44:38.842Z,102976
2018-02-26T12:47:07.097Z,102962
2018-02-26T12:49:35.350Z,102972
2018-02-26T12:52:03.646Z,102963
2018-02-26T12:54:31.882Z,102966
2018-02-26T12:57:00.055Z,102950
2018-02-26T12:59:28.293Z,102959
2018-02-26T13:01:56.673Z,102952
2018-02-26T13:04:24.828Z,102948
2018-02-26T13:06:53.840Z,102946
2018-02-26T13:09:22.675Z,102938
2018-02-26T13:11:50.918Z,102926
2018-02-26T13:14:19.180Z,102925
2018-02-26T13:16:48.233Z,102921
2018-02-26T13:19:16.481Z,102918
2018-02-26T13:21:44.655Z,102914
2018-02-26T13:24:12.859Z,102914
2018-02-26T13:26:41.117Z,102917
2018-02-26T13:29:09.360Z,102911
2018-02-26T13:31:37.663Z,102908
2018-02-26T13:34:05.895Z,102903
2018-02-26T13:36:34.158Z,102907
2018-02-26T13:39:03.109Z,102898
2018-02-26T13:41:32.207Z,102898
2018-02-26T13:44:00.456Z,102891
2018-02-26T13:46:28.626Z,102904
2018-02-26T13:48:56.875Z,102890
2018-02-26T13:51:25.088Z,102885
2018-02-26T13:53:53.268Z,102901
2018-02-26T13:56:21.440Z,102883
2018-02-26T13:58:49.786Z,102886
2018-02-26T14:01:18.056Z,102878
2018-02-26T14:03:47.018Z,102886
2018-02-26T14:06:15.202Z,102881
2018-02-26T14:08:43.439Z,102884
2018-02-26T14:11:11.594Z,102882
2018-02-26T14:13:39.784Z,102878
2018-02-26T14:16:08.071Z,102876
2018-02-26T14:18:36.230Z,102885
2018-02-26T14:21:04.455Z,102875
2018-02-26T14:23:32.708Z,102861
2018-02-26T14:26:00.966Z,102863
2018-02-26T14:28:29.167Z,102868
2018-02-26T14:30:57.594Z,102864
2018-02-26T14:33:25.770Z,102870
2018-02-26T14:35:53.960Z,102866
2018-02-26T14:38:22.357Z,102874
2018-02-26T14:40:50.542Z,102864
2018-02-26T14:43:18.960Z,102859
2018-02-26T14:45:47.123Z,102849
2018-02-26T14:48:16.335Z,102849
2018-02-26T14:50:44.587Z,102851
2018-02-26T14:53:13.183Z,102853
2018-02-26T14:55:41.379Z,102850
2018-02-26T14:58:09.628Z,102847
2018-02-26T15:00:37.841Z,102837
2018-02-26T15:03:06.020Z,102832
2018-02-26T15:05:34.237Z,102832
2018-02-26T15:08:02.425Z,102831
2018-02-26T15:10:30.596Z,102830
2018-02-26T15:12:58.965Z,102831
2018-02-26T15:15:27.276Z,102833
2018-02-26T15:17:55.527Z,102830
2018-02-26T15:20:23.776Z,102834
2018-02-26T15:22:52.813Z,102823
2018-02-26T15:25:20.989Z,102842
2018-02-26T15:27:49.216Z,102824
2018-02-26T15:30:17.536Z,102830
2018-02-26T15:32:45.738Z,102821
2018-02-26T15:35:14.051Z,102826
2018-02-26T15:37:42.975Z,102826
2018-02-26T15:40:11.388Z,102821
2018-02-26T15:42:39.693Z,102827
2018-02-26T15:45:08.659Z,102815
2018-02-26T15:47:36.868Z,102823
2018-02-26T15:50:05.856Z,102812
2018-02-26T15:52:34.863Z,102817
2018-02-26T15:55:03.210Z,102819
2018-02-26T15:57:32.150Z,102819
2018-02-26T16:00:00.428Z,102827
2018-02-26T16:02:28.679Z,102825
2018-02-26T16:04:56.930Z,102833
2018-02-26T16:07:25.999Z,102819
2018-02-26T16:09:54.246Z,102820
2018-02-26T16:12:22.465Z,102827
2018-02-26T16:14:51.793Z,102834
2018-02-26T16:17:19.987Z,102838
2018-02-26T16:19:49.000Z,102846
2018-02-26T16:22:17.279Z,102854
2018-02-26T16:24:45.560Z,102832
2018-02-26T16:27:14.583Z,102845
2018-02-26T16:29:43.603Z,102846
2018-02-26T16:32:11.821Z,102838
2018-02-26T16:34:39.970Z,102835
2018-02-26T16:37:08.281Z,102828
2018-02-26T16:39:36.784Z,102831
2018-02-26T16:42:05.745Z,102828
2018-02-26T16:44:34.031Z,102846
2018-02-26T16:47:03.034Z,102844
2018-02-26T16:49:31.358Z,102845
2018-02-26T16:51:59.616Z,102844
2018-02-26T16:54:27.809Z,102844
2018-02-26T16:56:57.983Z,102850
2018-02-26T16:59:26.271Z,102843
2018-02-26T17:01:54.567Z,102835
2018-02-26T17:04:22.816Z,102835
2018-02-26T17:06:51.035Z,102837
2018-02-26T17:09:19.360Z,102832
2018-02-26T17:11:47.600Z,102827
2018-02-26T17:14:15.812Z,102833
2018-02-26T17:16:44.037Z,102817
2018-02-26T17:19:12.227Z,102823
2018-02-26T17:21:40.484Z,102812
2018-02-26T17:24:08.713Z,102813
2018-02-26T17:26:37.851Z,102808
2018-02-26T17:29:06.030Z,102810
2018-02-26T17:31:34.418Z,102806
2018-02-26T17:34:02.694Z,102805
2018-02-26T17:36:30.918Z,102807
2018-02-26T17:38:59.296Z,102809
2018-02-26T17:41:27.571Z,102810
2018-02-26T17:43:55.831Z,102807
2018-02-26T17:46:24.845Z,102810
2018-02-26T17:48:53.214Z,102808
2018-02-26T17:51:21.452Z,102817
2018-02-26T17:53:49.689Z,102825
2018-02-26T17:56:17.880Z,102822
2018-02-26T17:58:46.165Z,102820
2018-02-26T18:01:14.412Z,102816
2018-02-26T18:03:42.962Z,102807
2018-02-26T18:06:12.035Z,102803
2018-02-26T18:08:40.249Z,102805
2018-02-26T18:11:08.498Z,102799
2018-02-26T18:13:37.572Z,102798
2018-02-26T18:16:05.893Z,102807
2018-02-26T18:18:34.064Z,102797
2018-02-26T18:21:02.310Z,102797
2018-02-26T18:23:30.774Z,102792
2018-02-26T18:25:59.083Z,102793
2018-02-26T18:28:27.324Z,102791
2018-02-26T19:00:23.496Z,102794
2018-02-26T19:02:51.757Z,102788
2018-02-26T19:05:19.943Z,102787
2018-02-26T19:07:48.182Z,102785
2018-02-26T19:10:17.168Z,102788
2018-02-26T19:12:46.269Z,102778
2018-02-26T19:15:14.621Z,102776
2018-02-26T19:17:42.859Z,102782
2018-02-26T19:20:11.097Z,102777
2018-02-26T19:22:40.043Z,102785
2018-02-26T19:25:08.246Z,102780
2018-02-26T19:27:36.461Z,102772
2018-02-26T19:30:04.663Z,102760
2018-02-26T19:32:32.883Z,102763
2018-02-26T19:35:01.932Z,102764
2018-02-26T19:37:30.164Z,102757
2018-02-26T19:39:58.345Z,102757
2018-02-26T19:42:26.558Z,102753
2018-02-26T19:44:54.704Z,102753
2018-02-26T19:47:22.883Z,102757
2018-02-26T19:49:51.077Z,102756
2018-02-26T19:52:19.299Z,102764
2018-02-26T19:54:48.218Z,102768
2018-02-26T19:57:16.443Z,102769
2018-02-26T19:59:44.689Z,102763
2018-02-26T20:02:12.868Z,102770
2018-02-26T20:04:41.129Z,102764
2018-02-26T20:07:09.306Z,102765
2018-02-26T20:09:37.736Z,102764
2018-02-26T20:12:06.707Z,102757
2018-02-26T20:14:35.693Z,102763
2018-02-26T20:17:04.207Z,102758
2018-02-26T20:19:32.412Z,102754
2018-02-26T20:22:00.556Z,102749
2018-02-26T20:24:28.772Z,102753
2018-02-26T20:26:56.945Z,102751
2018-02-26T20:29:25.134Z,102749
2018-02-26T20:31:53.306Z,102754
2018-02-26T20:34:21.588Z,102747
2018-02-26T20:36:49.845Z,102739
2018-02-26T20:39:18.204Z,102748
2018-02-26T20:41:46.358Z,102743
2018-02-26T20:44:14.676Z,102744
2018-02-26T20:46:42.875Z,102737
2018-02-26T20:49:11.835Z,102747
2018-02-26T20:51:40.248Z,102743
2018-02-26T20:54:09.197Z,102745
2018-02-26T20:56:37.420Z,102738
2018-02-26T20:59:05.648Z,102736
2018-02-26T21:01:33.916Z,102735
2018-02-26T21:04:03.483Z,102727
2018-02-26T21:06:32.393Z,102720
2018-02-26T21:09:00.664Z,102718
2018-02-26T21:11:28.950Z,102719
2018-02-26T21:13:57.176Z,102717
2018-02-26T21:16:26.239Z,102716
2018-02-26T21:18:54.756Z,102717
2018-02-26T21:21:23.060Z,102718
2018-02-26T21:23:51.273Z,102709
2018-02-26T21:26:19.543Z,102705
2018-02-26T21:28:47.791Z,102718
2018-02-26T21:31:16.093Z,102715
2018-02-26T21:33:44.251Z,102720
2018-02-26T21:36:12.592Z,102720
2018-02-26T21:38:40.823Z,102718
2018-02-26T21:41:09.082Z,102717
2018-02-26T21:43:37.316Z,102717
2018-02-26T21:46:05.655Z,102711
2018-02-26T21:48:33.838Z,102708
2018-02-26T21:51:02.201Z,102716
2018-02-26T21:53:30.411Z,102711
2018-02-26T21:55:59.415Z,102711
2018-02-26T21:58:28.438Z,102701
2018-02-26T22:00:56.656Z,102705
2018-02-26T22:03:24.973Z,102700
2018-02-26T22:05:53.167Z,102700
2018-02-26T22:08:21.418Z,102702
2018-02-26T22:10:49.723Z,102702
2018-02-26T22:13:17.887Z,102701
2018-02-26T22:15:46.064Z,102704
2018-02-26T22:18:14.283Z,102709
2018-02-26T22:20:42.463Z,102707
2018-02-26T22:23:10.998Z,102702
2018-02-26T22:25:39.230Z,102701
2018-02-26T22:28:07.423Z,102699
2018-02-26T22:30:35.832Z,102703
2018-02-26T22:33:04.022Z,102695
2018-02-26T22:35:32.233Z,102690
2018-02-26T22:38:00.452Z,102688
2018-02-26T22:40:28.746Z,102690
2018-02-26T22:42:57.130Z,102696
2018-02-26T22:45:25.303Z,102691
2018-02-26T22:47:53.578Z,102694
2018-02-26T22:50:21.820Z,102694
2018-02-26T22:52:50.914Z,102680
2018-02-26T22:55:19.095Z,102695
2018-02-26T22:57:47.294Z,102695
2018-02-26T23:00:15.547Z,102697
2018-02-26T23:02:43.777Z,102699
2018-02-26T23:05:12.094Z,102687
2018-02-26T23:07:40.298Z,102693
2018-02-26T23:10:08.438Z,102694
2018-02-26T23:12:36.715Z,102692
2018-02-26T23:15:04.886Z,102682
2018-02-26T23:17:33.043Z,102677
2018-02-26T23:20:01.273Z,102679
2018-02-26T23:22:30.196Z,102670
2018-02-26T23:24:58.421Z,102667
2018-02-26T23:27:26.562Z,102661
2018-02-26T23:29:54.730Z,102659
2018-02-26T23:32:22.958Z,102654
2018-02-26T23:34:51.143Z,102658
2018-02-26T23:37:20.070Z,102651
2018-02-26T23:39:48.254Z,102655
2018-02-26T23:42:16.485Z,102659
2018-02-26T23:44:44.777Z,102662
2018-02-26T23:47:12.908Z,102668
2018-02-26T23:49:41.060Z,102665
2018-02-26T23:52:09.211Z,102658
2018-02-26T23:54:48.904Z,102659
2018-02-26T23:57:17.831Z,102660
2018-02-26T23:59:46.017Z,102663
